Hlavní strana
METAR-TAF:

METAR-TAF

Letiště :

Letiště Žilina

Žilina, Slovensko

zeměpisná šířka: 49-14N, zeměpisná délka: 018-36-49E, výška: 312 m

Aktuální stav počasí

Zpráva byla vytvořena před 38 minutami, v 00:30 UTC
Východní vítr 2 kt
Teplota 7°C
Vlhkost vzduchu 87%
Tlak 1023 hPa
Viditelnost 10 km a více
Žádná oblačnost pod 1500 m, nevyskytují se cumulonimby.

METAR: LZZI 170030Z 08002KT CAVOK 07/05 Q1023

Čas: 03:08 (01:08 UTC)

Předpověď počasí

Zpráva byla vytvořena před 2 hodinami a 8 minutami, v 23:00 UTC
Předpověď platná od 17 v 00 UTC do 17 v 09 UTC
vítr z různých směrů 2 kt
Viditelnost 10 km a více
Žádná oblačnost pod 1500 m, nevyskytují se cumulonimby.
Dočasný
od 17 v 00 UTC do 17 v 07 UTC
Viditelnost: 3000 m
Skoro jasno ve výšce 1000 ft
Polojasno ve výšce 7000 ft
kouřmo
Pravděpodobnost 40% :
Dočasný
od 17 v 02 UTC do 17 v 06 UTC
Viditelnost: 0700 m
Polojasno ve výšce 100 ft
mlha

TAF: LZZI 162300Z 1700/1709 VRB02KT CAVOK TEMPO 1700/1707 3000 BR FEW010 SCT070 PROB40 TEMPO 1702/1706 0700 FG SCT001

Stav a předpovědi počasí z více než 4 000 letišť (zprávy METAR a TAF).

Červené a žluté tečky na mapě představují dostupné meteorologické stanice.

Když kurzor umístíte na tečku, zobrazí se název stanice.

Pak kliknutím zobrazíte stav a předpověď počasí.

Chcete-li změnit mapu, kliknutím na zelené tlačítko se znaménkem +mapu přiblížíte, kliknutím na zelené tlačítko se znaménkem – mapu oddálíte a kliknutím na zelené šipky přejdete na sousední mapy.


METAR-TAF: